Time;durP1;ratioP1;P1;durP2;ratioP2;P2;SDS_P1;SDS_P2;PMS_P1;PMS_P2;Temp;Humidity;BMP_temperature;BMP_pressure;BME280_temperature;BME280_humidity;BME280_pressure;Samples;Min_cycle;Max_cycle;Signal;HPM_P1;HPM_P2
2023/08/26 00:01:48;;;;;;;5.43;3.50;;;20.50;99.90;;;;;;4916184;29;20896;-69
2023/08/26 00:04:14;;;;;;;3.93;3.07;;;20.50;99.90;;;;;;4911472;29;20470;-70
2023/08/26 00:06:41;;;;;;;3.33;2.13;;;20.60;99.90;;;;;;4915774;29;20484;-69
2023/08/26 00:09:08;;;;;;;7.60;2.70;;;20.70;99.90;;;;;;4917001;29;20479;-69
2023/08/26 00:11:35;;;;;;;4.47;2.90;;;20.60;99.90;;;;;;4917221;29;20460;-70
2023/08/26 00:14:04;;;;;;;5.83;4.07;;;20.50;99.90;;;;;;4915053;29;20467;-70
2023/08/26 00:16:31;;;;;;;4.23;2.60;;;20.30;99.90;;;;;;4912550;29;20464;-69
2023/08/26 00:18:59;;;;;;;4.90;2.73;;;20.00;99.90;;;;;;4916140;29;20471;-70
2023/08/26 00:21:26;;;;;;;4.97;3.00;;;19.70;99.90;;;;;;4915517;29;20456;-69
2023/08/26 00:23:52;;;;;;;6.50;2.30;;;19.80;99.90;;;;;;4916220;29;20466;-69
2023/08/26 00:26:19;;;;;;;6.30;2.90;;;20.00;99.90;;;;;;4916580;29;20998;-69
2023/08/26 00:28:46;;;;;;;6.00;2.73;;;20.20;99.90;;;;;;4915193;29;20496;-69
2023/08/26 00:31:14;;;;;;;5.83;2.50;;;19.90;99.90;;;;;;4915363;29;20472;-70
2023/08/26 00:33:41;;;;;;;6.70;2.50;;;19.60;99.90;;;;;;4916382;29;20449;-69
2023/08/26 00:36:08;;;;;;;4.53;2.60;;;19.70;99.90;;;;;;4916714;29;20448;-69
2023/08/26 00:38:35;;;;;;;4.60;3.03;;;20.00;99.90;;;;;;4915541;29;20827;-70
2023/08/26 00:41:01;;;;;;;4.50;2.87;;;19.60;99.90;;;;;;4913510;29;20453;-70
2023/08/26 00:43:28;;;;;;;5.73;3.10;;;19.70;99.90;;;;;;4911656;29;20460;-70
2023/08/26 00:45:55;;;;;;;5.00;3.30;;;19.90;99.90;;;;;;4914723;29;21244;-69
2023/08/26 00:48:23;;;;;;;4.53;2.87;;;20.00;99.90;;;;;;4916377;29;20459;-69
2023/08/26 00:50:53;;;;;;;4.53;2.60;;;20.30;99.90;;;;;;4915002;29;20471;-69
2023/08/26 00:53:23;;;;;;;4.10;2.70;;;20.40;99.90;;;;;;4916912;29;20448;-68
2023/08/26 00:55:50;;;;;;;6.30;2.90;;;20.30;99.90;;;;;;4914616;29;20505;-69
2023/08/26 00:58:18;;;;;;;6.10;3.60;;;20.30;99.90;;;;;;4915353;29;20911;-70
2023/08/26 01:00:45;;;;;;;3.87;2.97;;;20.30;99.90;;;;;;4911588;29;20462;-70
2023/08/26 01:03:12;;;;;;;5.20;3.20;;;20.40;99.90;;;;;;4902626;29;20487;-70
2023/08/26 01:05:40;;;;;;;7.47;3.47;;;20.40;99.90;;;;;;4913492;29;20469;-69
2023/08/26 01:08:07;;;;;;;5.87;3.30;;;20.30;99.90;;;;;;4900534;29;20477;-68
2023/08/26 01:10:43;;;;;;;5.37;2.83;;;20.30;99.90;;;;;;4905847;29;20481;-69
2023/08/26 01:13:14;;;;;;;4.73;2.90;;;20.30;99.90;;;;;;4908717;29;20465;-69
2023/08/26 01:15:44;;;;;;;6.63;2.67;;;20.40;99.90;;;;;;4900425;29;20488;-69
2023/08/26 01:18:13;;;;;;;3.60;2.40;;;20.50;99.90;;;;;;4907195;29;20461;-69
2023/08/26 01:20:43;;;;;;;3.03;2.17;;;20.50;99.90;;;;;;4911344;29;20469;-69
2023/08/26 01:23:16;;;;;;;3.30;2.07;;;20.40;99.90;;;;;;4905085;29;20468;-69
2023/08/26 01:25:44;;;;;;;3.50;2.60;;;20.00;99.90;;;;;;4913756;29;20974;-69
2023/08/26 01:28:11;;;;;;;3.30;1.80;;;;;;;;;;4908060;29;20994;-69
2023/08/26 01:30:39;;;;;;;4.77;2.33;;;;;;;;;;4914263;29;20980;-68
2023/08/26 01:33:09;;;;;;;3.30;1.70;;;;;;;;;;4914959;29;20468;-70
2023/08/26 01:35:39;;;;;;;6.27;2.10;;;;;;;;;;4914869;29;20448;-70
2023/08/26 01:38:06;;;;;;;4.00;2.13;;;;;;;;;;4910976;29;20512;-69
2023/08/26 01:40:35;;;;;;;5.83;1.63;;;;;;;;;;4905428;29;20463;-69
2023/08/26 01:43:04;;;;;;;2.93;2.00;;;;;;;;;;4909713;29;20449;-69
2023/08/26 01:45:31;;;;;;;4.70;2.50;;;;;;;;;;4915173;29;20932;-70
2023/08/26 01:47:58;;;;;;;3.77;1.70;;;;;;;;;;4907835;29;20496;-71
2023/08/26 01:50:25;;;;;;;3.77;2.03;;;;;;;;;;4910397;29;20472;-69
2023/08/26 01:52:52;;;;;;;3.60;1.80;;;;;;;;;;4913376;29;20471;-69
2023/08/26 01:55:19;;;;;;;5.37;2.00;;;;;;;;;;4913614;29;20929;-69
2023/08/26 01:57:46;;;;;;;2.90;1.70;;;;;;;;;;4904088;29;20465;-69
2023/08/26 02:00:16;;;;;;;3.00;1.83;;;;;;;;;;4897355;29;20493;-72
2023/08/26 02:02:43;;;;;;;2.97;1.60;;;;;;;;;;4908476;29;20482;-70
2023/08/26 02:05:10;;;;;;;3.70;1.80;;;;;;;;;;4903452;29;20457;-70
2023/08/26 02:07:37;;;;;;;3.00;1.80;;;;;;;;;;4909253;29;20483;-72
2023/08/26 02:10:05;;;;;;;2.73;1.47;;;;;;;;;;4904331;29;20867;-69
2023/08/26 02:12:32;;;;;;;3.50;1.83;;;;;;;;;;4908213;29;20465;-70
2023/08/26 02:15:01;;;;;;;2.40;1.33;;;;;;;;;;4915194;29;20856;-70
2023/08/26 02:17:29;;;;;;;3.60;1.60;;;;;;;;;;4914294;29;20823;-70
2023/08/26 02:19:56;;;;;;;2.70;1.53;;;;;;;;;;4914932;29;20472;-70
2023/08/26 02:22:23;;;;;;;2.80;1.57;;;;;;;;;;4914941;29;20825;-72
2023/08/26 02:24:50;;;;;;;2.87;1.53;;;19.60;99.90;;;;;;4909121;29;20444;-70
2023/08/26 02:27:17;;;;;;;3.20;1.90;;;19.00;99.90;;;;;;4912607;29;20506;-70
2023/08/26 02:29:44;;;;;;;2.97;1.57;;;19.00;99.90;;;;;;4914315;29;20476;-70
2023/08/26 02:32:12;;;;;;;3.67;1.87;;;19.00;99.90;;;;;;4913129;29;20547;-69
2023/08/26 02:34:40;;;;;;;2.63;1.50;;;19.00;99.90;;;;;;4915260;29;20448;-70
2023/08/26 02:37:07;;;;;;;5.50;1.90;;;19.20;99.90;;;;;;4914366;29;20448;-69
2023/08/26 02:39:34;;;;;;;2.47;1.37;;;19.20;99.90;;;;;;4914884;29;20471;-71
2023/08/26 02:42:01;;;;;;;3.20;1.93;;;19.10;99.90;;;;;;4915937;29;20549;-70
2023/08/26 02:44:28;;;;;;;2.83;1.77;;;;;;;;;;4910627;29;20465;-70
2023/08/26 02:46:55;;;;;;;5.53;2.07;;;;;;;;;;4913716;29;20575;-71
2023/08/26 02:49:22;;;;;;;3.40;1.67;;;;;;;;;;4918295;29;20850;-70
2023/08/26 02:51:51;;;;;;;2.37;1.30;;;;;;;;;;4918715;29;20455;-70
2023/08/26 02:54:18;;;;;;;3.83;2.20;;;;;;;;;;4910758;29;20461;-70
2023/08/26 02:56:45;;;;;;;2.87;1.47;;;;;;;;;;4909950;29;20507;-71
2023/08/26 02:59:12;;;;;;;2.37;1.30;;;;;;;;;;4915077;29;20907;-70
2023/08/26 03:01:40;;;;;;;5.00;1.73;;;;;;;;;;4912782;29;20471;-70
2023/08/26 03:04:07;;;;;;;4.30;2.30;;;;;;;;;;4917830;29;20885;-70
2023/08/26 03:06:34;;;;;;;5.67;2.13;;;;;;;;;;4917993;29;20448;-69
2023/08/26 03:09:03;;;;;;;3.00;1.70;;;;;;;;;;4918058;29;20464;-70
2023/08/26 03:11:30;;;;;;;4.00;2.00;;;;;;;;;;4917913;29;20866;-70
2023/08/26 03:13:57;;;;;;;4.00;2.60;;;;;;;;;;4912484;29;20471;-70
2023/08/26 03:16:24;;;;;;;3.40;1.90;;;;;;;;;;4917731;29;20437;-71
2023/08/26 03:18:51;;;;;;;3.20;1.40;;;;;;;;;;4915287;29;20479;-70
2023/08/26 03:21:18;;;;;;;5.13;1.57;;;;;;;;;;4919320;29;20459;-69
2023/08/26 03:23:45;;;;;;;3.83;1.97;;;;;;;;;;4916256;29;20472;-71
2023/08/26 03:26:13;;;;;;;3.17;1.70;;;;;;;;;;4920029;29;20456;-70
2023/08/26 03:28:40;;;;;;;4.53;1.70;;;;;;;;;;4919564;29;20499;-70
2023/08/26 03:31:07;;;;;;;3.60;2.27;;;;;;;;;;4918915;29;20453;-68
2023/08/26 03:33:35;;;;;;;4.20;2.10;;;;;;;;;;4905151;29;20472;-70
2023/08/26 03:36:04;;;;;;;3.53;2.20;;;;;;;;;;4918459;29;20487;-69
2023/08/26 03:38:32;;;;;;;3.30;2.00;;;;;;;;;;4907283;29;20512;-69
2023/08/26 03:40:59;;;;;;;2.53;1.40;;;;;;;;;;4915194;29;20460;-70
2023/08/26 03:43:27;;;;;;;4.17;2.13;;;;;;;;;;4914788;29;20971;-72
2023/08/26 03:45:54;;;;;;;4.23;2.20;;;;;;;;;;4906642;29;20461;-70
2023/08/26 03:48:21;;;;;;;3.50;1.90;;;;;;;;;;4906617;29;20485;-69
2023/08/26 03:50:51;;;;;;;2.47;1.70;;;;;;;;;;4914449;29;20482;-69
2023/08/26 03:53:18;;;;;;;3.60;1.93;;;;;;;;;;4906435;29;21036;-69
2023/08/26 03:55:46;;;;;;;3.77;1.80;;;;;;;;;;4905937;29;20466;-68
2023/08/26 03:58:13;;;;;;;3.70;1.70;;;;;;;;;;4909069;29;20464;-69
2023/08/26 04:00:41;;;;;;;4.17;2.70;;;;;;;;;;4911672;29;20464;-69
2023/08/26 04:03:09;;;;;;;3.87;1.67;;;;;;;;;;4916826;29;20460;-71
2023/08/26 04:05:36;;;;;;;3.23;1.87;;;;;;;;;;4916929;29;20447;-71
2023/08/26 04:08:03;;;;;;;4.63;2.00;;;;;;;;;;4912167;29;20539;-71
2023/08/26 04:10:30;;;;;;;3.10;2.03;;;;;;;;;;4909561;29;20489;-70
2023/08/26 04:13:01;;;;;;;3.00;1.90;;;;;;;;;;4908120;29;20466;-71
2023/08/26 04:15:28;;;;;;;3.67;1.87;;;;;;;;;;4904845;29;20471;-70
2023/08/26 04:17:57;;;;;;;3.20;1.60;;;;;;;;;;4916580;29;20445;-69
2023/08/26 04:20:24;;;;;;;3.83;2.17;;;;;;;;;;4916075;29;20465;-75
2023/08/26 04:22:51;;;;;;;5.10;2.77;;;;;;;;;;4905375;29;20831;-70
2023/08/26 04:25:18;;;;;;;3.23;2.10;;;;;;;;;;4915983;29;20444;-69
2023/08/26 04:27:45;;;;;;;3.47;2.27;;;;;;;;;;4909108;29;20486;-70
2023/08/26 04:30:13;;;;;;;3.77;2.27;;;;;;;;;;4906792;29;20504;-70
2023/08/26 04:32:40;;;;;;;2.90;1.70;;;;;;;;;;4915315;29;20452;-69
2023/08/26 04:35:09;;;;;;;3.60;2.00;;;;;;;;;;4915644;29;20445;-70
2023/08/26 04:37:37;;;;;;;3.13;1.70;;;;;;;;;;4916198;29;20541;-70
2023/08/26 04:40:09;;;;;;;4.57;1.83;;;;;;;;;;4915034;29;20485;-70
2023/08/26 04:42:36;;;;;;;5.57;2.20;;;;;;;;;;4909919;29;20449;-71
2023/08/26 04:45:04;;;;;;;3.80;1.90;;;;;;;;;;4912431;29;20478;-70
2023/08/26 04:47:31;;;;;;;3.53;1.60;;;;;;;;;;4906151;29;20480;-72
2023/08/26 04:49:59;;;;;;;5.17;2.37;;;;;;;;;;4914776;29;20485;-70
2023/08/26 04:52:27;;;;;;;5.03;2.03;;;;;;;;;;4915566;29;20888;-71
2023/08/26 04:54:54;;;;;;;3.90;2.27;;;;;;;;;;4915657;29;20444;-70
2023/08/26 04:57:22;;;;;;;4.47;2.90;;;;;;;;;;4915372;29;20459;-69
2023/08/26 04:59:49;;;;;;;3.90;2.10;;;;;;;;;;4914533;29;20478;-70
2023/08/26 05:02:16;;;;;;;3.50;1.60;;;;;;;;;;4913895;29;20464;-69
2023/08/26 05:04:44;;;;;;;3.93;2.23;;;;;;;;;;4912772;29;20475;-70
2023/08/26 05:07:11;;;;;;;4.20;1.87;;;;;;;;;;4905676;29;20448;-70
2023/08/26 05:09:40;;;;;;;4.10;1.87;;;;;;;;;;4911285;29;20495;-70
2023/08/26 05:12:07;;;;;;;3.87;2.43;;;;;;;;;;4915064;29;20487;-70
2023/08/26 05:14:34;;;;;;;4.77;2.37;;;;;;;;;;4915988;29;20445;-70
2023/08/26 05:17:01;;;;;;;6.53;2.13;;;;;;;;;;4914881;29;20472;-70
2023/08/26 05:19:29;;;;;;;3.13;2.00;;;;;;;;;;4914938;29;20839;-71
2023/08/26 05:21:57;;;;;;;3.30;2.13;;;;;;;;;;4904862;29;20444;-70
2023/08/26 05:24:24;;;;;;;4.20;2.30;;;;;;;;;;4913534;29;20499;-70
2023/08/26 05:26:53;;;;;;;3.97;2.20;;;;;;;;;;4909461;29;20464;-70
2023/08/26 05:29:20;;;;;;;4.40;2.00;;;;;;;;;;4907973;29;20484;-71
2023/08/26 05:31:47;;;;;;;7.00;2.40;;;;;;;;;;4912995;29;20471;-70
2023/08/26 05:34:14;;;;;;;3.47;2.00;;;;;;;;;;4913087;29;20448;-70
2023/08/26 05:36:41;;;;;;;3.50;2.53;;;;;;;;;;4907605;29;20465;-69
2023/08/26 05:39:08;;;;;;;3.13;2.10;;;;;;;;;;4915885;29;20483;-70
2023/08/26 05:41:35;;;;;;;5.70;2.97;;;;;;;;;;4914964;29;20437;-70
2023/08/26 05:44:04;;;;;;;3.70;2.67;;;;;;;;;;4915422;29;20507;-70
2023/08/26 05:46:31;;;;;;;6.70;1.80;;;;;;;;;;4914716;29;20459;-70
2023/08/26 05:48:58;;;;;;;4.00;2.63;;;;;;;;;;4914860;29;20495;-70
2023/08/26 05:51:26;;;;;;;7.10;2.13;;;;;;;;;;4915146;29;20449;-70
2023/08/26 05:53:54;;;;;;;4.83;2.60;;;;;;;;;;4915162;29;20476;-69
2023/08/26 05:56:21;;;;;;;3.80;2.03;;;;;;;;;;4903892;29;20977;-70
2023/08/26 05:58:49;;;;;;;5.30;2.93;;;;;;;;;;4909223;29;21003;-67
2023/08/26 06:01:17;;;;;;;3.57;2.10;;;;;;;;;;4912191;29;20468;-68
2023/08/26 06:03:44;;;;;;;3.53;2.07;;;;;;;;;;4914604;29;20475;-68
2023/08/26 06:06:11;;;;;;;3.63;2.50;;;;;;;;;;4915415;29;20459;-68
2023/08/26 06:08:38;;;;;;;3.67;2.10;;;;;;;;;;4915376;29;20858;-69
2023/08/26 06:11:06;;;;;;;5.00;2.37;;;;;;;;;;4914984;29;20559;-69
2023/08/26 06:13:33;;;;;;;5.00;2.50;;;;;;;;;;4915836;29;20444;-69
2023/08/26 06:16:00;;;;;;;4.30;2.03;;;;;;;;;;4914328;29;20456;-69
2023/08/26 06:18:28;;;;;;;3.73;2.80;;;;;;;;;;4906685;29;20836;-69
2023/08/26 06:20:55;;;;;;;4.20;2.27;;;;;;;;;;4918576;29;20479;-68
2023/08/26 06:23:23;;;;;;;7.30;6.60;;;;;;;;;;4918666;29;20849;-67
2023/08/26 06:25:53;;;;;;;6.13;2.60;;;;;;;;;;4919219;29;20448;-67
2023/08/26 06:28:21;;;;;;;3.53;2.67;;;;;;;;;;4917352;29;20581;-65
2023/08/26 06:30:48;;;;;;;4.43;2.00;;;;;;;;;;4917523;29;20468;-65
2023/08/26 06:33:15;;;;;;;3.40;2.50;;;;;;;;;;4919303;29;20471;-65
2023/08/26 06:35:47;;;;;;;5.67;2.30;;;;;;;;;;4919175;29;20452;-65
2023/08/26 06:38:14;;;;;;;3.60;1.90;;;;;;;;;;4912567;29;20459;-65
2023/08/26 06:40:41;;;;;;;4.90;2.40;;;;;;;;;;4907556;29;20967;-65
2023/08/26 06:43:08;;;;;;;5.97;2.87;;;;;;;;;;4917086;29;21047;-65
2023/08/26 06:45:35;;;;;;;3.23;1.73;;;;;;;;;;4918391;29;21009;-66
2023/08/26 06:48:03;;;;;;;3.93;2.20;;;;;;;;;;4899681;29;20449;-66
2023/08/26 06:50:30;;;;;;;4.63;2.03;;;;;;;;;;4915753;29;20854;-65
2023/08/26 06:52:58;;;;;;;2.67;1.83;;;;;;;;;;4907455;29;20990;-65
2023/08/26 06:55:25;;;;;;;3.37;1.97;;;;;;;;;;4916369;29;20447;-65
2023/08/26 06:57:52;;;;;;;3.77;2.20;;;;;;;;;;4919521;29;20457;-65
2023/08/26 07:00:21;;;;;;;4.07;2.13;;;;;;;;;;4917875;29;20472;-66
2023/08/26 07:02:48;;;;;;;3.47;1.90;;;;;;;;;;4904440;29;20592;-65
2023/08/26 07:05:15;;;;;;;3.03;1.77;;;;;;;;;;4916005;29;20453;-65
2023/08/26 07:07:42;;;;;;;3.03;2.20;;;;;;;;;;4906519;29;20623;-65
2023/08/26 07:10:11;;;;;;;3.90;2.47;;;;;;;;;;4918689;29;20495;-66
2023/08/26 07:12:38;;;;;;;5.07;2.10;;;;;;;;;;4919200;29;20453;-65
2023/08/26 07:15:06;;;;;;;3.07;1.93;;;;;;;;;;4917736;29;20527;-65
2023/08/26 07:17:33;;;;;;;2.97;2.07;;;;;;;;;;4916311;29;20469;-65
2023/08/26 07:20:00;;;;;;;3.47;2.10;;;;;;;;;;4918813;29;20456;-65
2023/08/26 07:22:27;;;;;;;4.20;2.20;;;;;;;;;;4918316;29;20491;-65
2023/08/26 07:24:54;;;;;;;7.30;2.47;;;;;;;;;;4918044;29;20449;-65
2023/08/26 07:27:23;;;;;;;3.60;1.77;;;;;;;;;;4918334;29;20970;-64
2023/08/26 07:29:51;;;;;;;6.80;1.90;;;;;;;;;;4912799;29;20488;-64
2023/08/26 07:32:18;;;;;;;2.83;1.93;;;;;;;;;;4916749;29;20477;-65
2023/08/26 07:34:45;;;;;;;4.30;1.77;;;;;;;;;;4917934;29;20452;-65
2023/08/26 07:37:12;;;;;;;3.90;1.97;;;;;;;;;;4917848;29;20453;-66
2023/08/26 07:39:39;;;;;;;5.00;2.50;;;;;;;;;;4911009;29;20605;-65
2023/08/26 07:42:06;;;;;;;2.70;2.07;;;;;;;;;;4916959;29;20447;-65
2023/08/26 07:44:35;;;;;;;3.33;1.80;;;;;;;;;;4912213;29;20453;-66
2023/08/26 07:47:02;;;;;;;3.10;1.70;;;;;;;;;;4917851;29;20952;-65
2023/08/26 07:49:29;;;;;;;3.50;1.83;;;;;;;;;;4918230;29;20492;-65
2023/08/26 07:51:57;;;;;;;3.13;1.73;;;;;;;;;;4917158;29;20449;-65
2023/08/26 07:54:24;;;;;;;3.10;1.60;;;;;;;;;;4910385;29;20464;-65
2023/08/26 07:56:51;;;;;;;3.97;2.03;;;;;;;;;;4917373;29;20460;-65
2023/08/26 07:59:18;;;;;;;3.90;2.20;;;;;;;;;;4917116;29;21025;-65
2023/08/26 08:01:47;;;;;;;3.47;2.17;;;;;;;;;;4906958;29;21138;-65
2023/08/26 08:04:14;;;;;;;2.63;1.40;;;;;;;;;;4903177;29;20472;-65
2023/08/26 08:06:41;;;;;;;3.77;2.30;;;;;;;;;;4911399;29;20471;-68
2023/08/26 08:09:09;;;;;;;3.83;2.13;;;;;;;;;;4916654;29;20496;-65
2023/08/26 08:11:36;;;;;;;4.10;2.60;;;;;;;;;;4915799;29;20448;-65
2023/08/26 08:14:03;;;;;;;2.80;1.80;;;;;;;;;;4912057;29;20448;-65
2023/08/26 08:16:30;;;;;;;4.60;2.00;;;;;;;;;;4916042;29;20476;-64
2023/08/26 08:18:58;;;;;;;3.10;1.60;;;;;;;;;;4909720;29;20481;-65
2023/08/26 08:21:25;;;;;;;3.00;1.60;;;;;;;;;;4910313;29;20444;-65
2023/08/26 08:23:52;;;;;;;2.37;1.50;;;;;;;;;;4916505;29;20476;-65
2023/08/26 08:26:20;;;;;;;5.30;2.10;;;;;;;;;;4911838;29;20469;-65
2023/08/26 08:28:47;;;;;;;4.17;2.13;;;;;;;;;;4902719;29;20507;-65
2023/08/26 08:31:14;;;;;;;2.30;1.60;;;;;;;;;;4912125;29;20460;-65
2023/08/26 08:33:41;;;;;;;4.77;1.83;;;;;;;;;;4910827;29;20475;-65
2023/08/26 08:36:10;;;;;;;5.07;1.87;;;;;;;;;;4913697;29;20480;-65
2023/08/26 08:38:37;;;;;;;2.93;1.60;;;;;;;;;;4915899;29;20567;-65
2023/08/26 08:41:04;;;;;;;4.50;2.10;;;;;;;;;;4907035;29;20555;-65
2023/08/26 08:43:31;;;;;;;7.83;2.13;;;;;;;;;;4912124;29;20475;-65
2023/08/26 08:45:59;;;;;;;2.93;1.70;;;;;;;;;;4908605;29;20846;-66
2023/08/26 08:48:26;;;;;;;3.83;2.67;;;;;;;;;;4914471;29;20464;-65
2023/08/26 08:50:55;;;;;;;2.30;1.60;;;;;;;;;;4916038;29;20955;-65
2023/08/26 08:53:27;;;;;;;3.40;2.10;;;;;;;;;;4916488;29;20440;-65
2023/08/26 08:55:54;;;;;;;6.07;1.90;;;;;;;;;;4915740;29;20476;-65
2023/08/26 08:58:22;;;;;;;4.17;2.00;;;;;;;;;;4915628;29;20437;-65
2023/08/26 09:00:49;;;;;;;3.90;2.43;;;;;;;;;;4913813;29;20923;-65
2023/08/26 09:03:17;;;;;;;2.40;1.70;;;;;;;;;;4911764;29;20463;-65
2023/08/26 09:05:44;;;;;;;3.40;2.33;;;;;;;;;;4915507;29;20883;-65
2023/08/26 09:08:12;;;;;;;4.23;2.20;;;;;;;;;;4914695;29;20840;-65
2023/08/26 09:10:41;;;;;;;3.47;2.13;;;;;;;;;;4911853;29;20496;-65
2023/08/26 09:13:08;;;;;;;4.93;1.90;;;;;;;;;;4904936;29;20472;-65
2023/08/26 09:15:35;;;;;;;5.37;2.20;;;;;;;;;;4913230;29;20462;-65
2023/08/26 09:18:03;;;;;;;2.87;2.10;;;;;;;;;;4909516;29;20955;-64
2023/08/26 09:20:30;;;;;;;3.30;1.93;;;;;;;;;;4905218;29;20485;-65
2023/08/26 09:23:04;;;;;;;2.93;2.10;;;;;;;;;;4911008;29;20513;-67
2023/08/26 09:25:32;;;;;;;3.57;1.97;;;;;;;;;;4914601;29;20460;-65
2023/08/26 09:28:00;;;;;;;3.57;2.07;;;;;;;;;;4908517;29;20460;-65
2023/08/26 09:30:27;;;;;;;3.50;2.23;;;;;;;;;;4914216;29;20496;-65
2023/08/26 09:32:55;;;;;;;2.40;1.57;;;;;;;;;;4909603;29;20980;-65
2023/08/26 09:35:22;;;;;;;5.20;2.03;;;;;;;;;;4915676;29;20448;-65
2023/08/26 09:37:50;;;;;;;3.30;1.97;;;;;;;;;;4910390;29;20503;-66
2023/08/26 09:40:18;;;;;;;3.67;2.43;;;;;;;;;;4911376;29;20460;-66
2023/08/26 09:42:45;;;;;;;3.90;2.90;;;;;;;;;;4908719;29;20604;-65
2023/08/26 09:45:17;;;;;;;4.50;2.13;;;;;;;;;;4908676;29;20865;-65
2023/08/26 09:47:44;;;;;;;3.80;1.90;;;;;;;;;;4914092;29;20472;-66
2023/08/26 09:50:11;;;;;;;4.30;1.80;;;;;;;;;;4909680;29;20492;-65
2023/08/26 09:52:45;;;;;;;4.43;2.20;;;;;;;;;;4916368;29;20460;-65
2023/08/26 09:55:12;;;;;;;2.70;1.63;;;;;;;;;;4917890;29;21040;-65
2023/08/26 09:57:39;;;;;;;3.20;2.20;;;;;;;;;;4919426;29;20476;-65
2023/08/26 10:00:10;;;;;;;8.13;2.13;;;;;;;;;;4915737;29;20484;-65
2023/08/26 10:02:39;;;;;;;3.57;1.93;;;;;;;;;;4915648;29;20899;-65
2023/08/26 10:05:11;;;;;;;3.13;2.10;;;;;;;;;;4906537;29;20467;-65
2023/08/26 10:07:39;;;;;;;3.27;2.20;;;;;;;;;;4919605;29;20448;-64
2023/08/26 10:10:09;;;;;;;4.63;2.53;;;;;;;;;;4916982;29;20582;-65
2023/08/26 10:12:39;;;;;;;3.73;2.27;;;;;;;;;;4918271;29;20456;-65
2023/08/26 10:15:09;;;;;;;3.60;1.90;;;;;;;;;;4910728;29;20460;-66
2023/08/26 10:17:36;;;;;;;3.60;2.37;;;;;;;;;;4911180;29;20960;-66
2023/08/26 10:20:05;;;;;;;7.33;3.00;;;;;;;;;;4917214;29;20841;-65
2023/08/26 10:22:32;;;;;;;3.77;2.07;;;;;;;;;;4918403;29;20555;-65
2023/08/26 10:25:00;;;;;;;4.30;2.50;;;;;;;;;;4906570;29;20455;-65
2023/08/26 10:27:27;;;;;;;6.23;2.17;;;;;;;;;;4917490;29;20447;-65
2023/08/26 10:29:55;;;;;;;3.47;2.30;;;;;;;;;;4917743;29;21015;-65
2023/08/26 10:32:23;;;;;;;3.90;2.60;;;;;;;;;;4909762;29;20520;-65
2023/08/26 10:34:54;;;;;;;3.43;2.13;;;;;;;;;;4919850;29;20528;-64
2023/08/26 10:37:24;;;;;;;5.90;2.63;;;;;;;;;;4918385;29;20441;-64
2023/08/26 10:39:51;;;;;;;4.20;2.00;;;;;;;;;;4918208;29;20520;-66
2023/08/26 10:42:19;;;;;;;5.07;2.80;;;;;;;;;;4918959;29;20955;-68
2023/08/26 10:44:47;;;;;;;2.80;1.90;;;;;;;;;;4913192;29;20959;-64
2023/08/26 10:47:34;;;;;;;3.60;2.17;;;;;;;;;;4912653;29;20890;-64
2023/08/26 10:50:14;;;;;;;2.80;1.70;;;;;;;;;;4918476;29;20500;-64
2023/08/26 10:52:42;;;;;;;3.23;2.43;;;;;;;;;;4918468;29;20822;-65
2023/08/26 10:55:13;;;;;;;2.90;2.10;;;;;;;;;;4917704;29;20444;-65
2023/08/26 10:57:44;;;;;;;4.00;1.77;;;;;;;;;;4917892;29;20476;-65
2023/08/26 11:00:12;;;;;;;2.80;2.30;;;;;;;;;;4915590;29;20454;-64
2023/08/26 11:02:39;;;;;;;5.13;2.00;;;;;;;;;;4912321;29;20464;-64
2023/08/26 11:05:08;;;;;;;9.63;2.70;;;;;;;;;;4909666;29;20469;-66
2023/08/26 11:07:35;;;;;;;3.83;2.37;;;;;;;;;;4915747;29;20799;-65
2023/08/26 11:10:03;;;;;;;2.83;1.80;;;;;;;;;;4917300;29;20491;-64
2023/08/26 11:12:30;;;;;;;4.40;1.97;;;;;;;;;;4916158;29;20472;-65
2023/08/26 11:15:04;;;;;;;3.00;2.00;;;;;;;;;;4909333;29;20473;-65
2023/08/26 11:17:31;;;;;;;2.93;2.30;;;;;;;;;;4918238;29;20453;-64
2023/08/26 11:19:58;;;;;;;2.97;2.20;;;;;;;;;;4917924;29;20468;-65
2023/08/26 11:22:26;;;;;;;4.37;2.93;;;;;;;;;;4918461;29;20444;-66
2023/08/26 11:24:53;;;;;;;2.40;1.80;;;;;;;;;;4918550;29;20472;-66
2023/08/26 11:27:21;;;;;;;3.40;2.40;;;;;;;;;;4915863;29;20468;-66
2023/08/26 11:29:48;;;;;;;3.10;2.40;;;;;;;;;;4904866;29;20504;-66
2023/08/26 11:32:15;;;;;;;3.80;1.83;;;;;;;;;;4918287;29;20447;-66
2023/08/26 11:34:43;;;;;;;3.37;2.67;;;;;;;;;;4917643;29;20460;-66
2023/08/26 11:37:10;;;;;;;5.10;2.57;;;;;;;;;;4916600;29;20460;-66
2023/08/26 11:39:38;;;;;;;4.00;2.50;;;;;;;;;;4917525;29;20918;-66
2023/08/26 11:42:12;;;;;;;3.30;1.77;;;;;;;;;;4915938;29;20464;-66
2023/08/26 11:44:41;;;;;;;4.57;2.80;;;;;;;;;;4916167;29;20468;-65
2023/08/26 11:47:08;;;;;;;3.40;1.73;;;;;;;;;;4916807;29;20456;-66
2023/08/26 11:49:35;;;;;;;4.07;2.67;;;;;;;;;;4917299;29;20472;-66
2023/08/26 11:52:02;;;;;;;4.63;2.23;;;;;;;;;;4917241;29;20459;-65
2023/08/26 11:54:29;;;;;;;4.60;2.80;;;;;;;;;;4915198;29;20495;-66
2023/08/26 11:56:57;;;;;;;2.67;1.87;;;;;;;;;;4913067;29;20447;-66
2023/08/26 11:59:23;;;;;;;3.17;2.37;;;;;;;;;;4916939;29;20590;-66
2023/08/26 12:01:51;;;;;;;6.13;2.70;;;;;;;;;;4915813;29;20495;-67
2023/08/26 12:04:19;;;;;;;3.40;2.43;;;;;;;;;;4917231;29;20835;-65
2023/08/26 12:06:46;;;;;;;4.47;2.70;;;;;;;;;;4917270;29;20948;-65
2023/08/26 12:09:14;;;;;;;3.63;2.40;;;;;;;;;;4912305;29;20730;-66
2023/08/26 12:11:41;;;;;;;3.07;2.53;;;;;;;;;;4914716;29;20487;-66
2023/08/26 12:14:18;;;;;;;8.03;2.57;;;;;;;;;;4915535;29;20543;-66
2023/08/26 12:16:46;;;;;;;3.93;2.60;;;;;;;;;;4907901;29;20469;-65
2023/08/26 12:19:17;;;;;;;3.50;2.33;;;;;;;;;;4912455;29;20484;-66
2023/08/26 12:21:44;;;;;;;5.13;2.57;;;;;;;;;;4912708;29;20456;-66
2023/08/26 12:24:11;;;;;;;7.10;3.10;;;;;;;;;;4912935;29;20468;-65
2023/08/26 12:26:39;;;;;;;3.10;2.23;;;;;;;;;;4913796;29;20461;-65
2023/08/26 12:29:06;;;;;;;4.20;2.67;;;;;;;;;;4917770;29;20511;-65
2023/08/26 12:31:34;;;;;;;7.53;2.80;;;;;;;;;;4908307;29;20484;-65
2023/08/26 12:34:01;;;;;;;3.93;2.37;;;;;;;;;;4913083;29;20556;-65
2023/08/26 12:36:30;;;;;;;5.00;3.27;;;;;;;;;;4912560;29;20552;-66
2023/08/26 12:38:57;;;;;;;3.20;2.43;;;;;;;;;;4906385;29;20483;-65
2023/08/26 12:41:24;;;;;;;7.17;5.17;;;;;;;;;;4910146;29;20527;-65
2023/08/26 12:43:54;;;;;;;5.83;3.53;;;;;;;;;;4908254;29;20834;-65
2023/08/26 12:46:22;;;;;;;4.90;3.30;;;;;;;;;;4916770;29;20504;-65
2023/08/26 12:48:49;;;;;;;4.57;2.80;;;;;;;;;;4911157;29;20554;-65
2023/08/26 12:51:16;;;;;;;4.10;2.63;;;;;;;;;;4915022;29;21246;-65
2023/08/26 12:53:44;;;;;;;5.00;2.73;;;;;;;;;;4909254;29;20902;-65
2023/08/26 12:56:12;;;;;;;3.23;1.80;;;;;;;;;;4898981;29;20492;-65
2023/08/26 12:58:39;;;;;;;3.70;1.90;;;;;;;;;;4907679;29;20476;-65
2023/08/26 13:01:06;;;;;;;3.00;2.00;;;;;;;;;;4899657;29;20469;-65
2023/08/26 13:03:33;;;;;;;3.13;1.80;;;;;;;;;;4904053;29;20461;-65
2023/08/26 13:06:00;;;;;;;2.87;1.83;;;;;;;;;;4905541;29;20469;-65
2023/08/26 13:08:27;;;;;;;3.23;1.93;;;;;;;;;;4906385;29;20520;-65
2023/08/26 13:10:56;;;;;;;3.33;2.00;;;;;;;;;;4903707;29;20480;-66
2023/08/26 13:13:23;;;;;;;3.93;1.97;;;;;;;;;;4907803;29;20460;-65
2023/08/26 13:15:50;;;;;;;3.67;1.97;;;;;;;;;;4909692;29;20884;-65
2023/08/26 13:18:17;;;;;;;4.43;2.03;;;;;;;;;;4907613;29;20465;-65
2023/08/26 13:20:44;;;;;;;3.17;1.83;;;;;;;;;;4908208;29;20468;-65
2023/08/26 13:23:11;;;;;;;2.90;1.67;;;;;;;;;;4897733;29;20484;-65
2023/08/26 13:25:38;;;;;;;3.40;1.77;;;;;;;;;;4906976;29;20959;-64
2023/08/26 13:28:07;;;;;;;4.03;2.00;;;;;;;;;;4912954;29;20873;-65
2023/08/26 13:30:35;;;;;;;3.80;1.70;;;;;;;;;;4910726;29;20484;-64
2023/08/26 13:33:02;;;;;;;3.13;1.43;;;;;;;;;;4915067;29;20433;-64
2023/08/26 13:35:29;;;;;;;3.07;1.70;;;;;;;;;;4901187;29;20496;-64
2023/08/26 13:37:56;;;;;;;4.10;1.70;;;;;;;;;;4903629;29;20881;-65
2023/08/26 13:40:23;;;;;;;3.03;1.90;;;;;;;;;;4907515;29;20487;-65
2023/08/26 13:42:53;;;;;;;3.03;1.80;;;;;;;;;;4904179;29;20468;-64
2023/08/26 13:45:21;;;;;;;4.30;1.97;;;;;;;;;;4900094;29;20524;-65
2023/08/26 13:47:48;;;;;;;3.37;1.50;;;;;;;;;;4899483;29;20464;-65
2023/08/26 13:50:15;;;;;;;2.63;1.83;;;;;;;;;;4902862;29;20844;-64
2023/08/26 13:52:42;;;;;;;5.50;1.83;;;;;;;;;;4914339;29;20468;-65
2023/08/26 13:55:10;;;;;;;4.00;1.60;;;;;;;;;;4915446;29;20444;-65
2023/08/26 13:57:37;;;;;;;3.20;1.93;;;;;;;;;;4912926;29;20468;-66
2023/08/26 14:00:05;;;;;;;4.07;2.00;;;;;;;;;;4913740;29;20477;-65
2023/08/26 14:02:33;;;;;;;3.93;1.77;;;;;;;;;;4914038;29;20449;-66
2023/08/26 14:05:00;;;;;;;7.50;2.23;;;;;;;;;;4911707;29;20818;-65
2023/08/26 14:07:28;;;;;;;2.60;1.60;;;;;;;;;;4913770;29;20851;-65
2023/08/26 14:09:55;;;;;;;7.83;1.90;;;;;;;;;;4915271;29;20468;-66
2023/08/26 14:14:51;;;;;;;4.50;1.63;;;;;;;;;;4911141;29;20928;-66
2023/08/26 14:17:18;;;;;;;3.10;1.30;;;;;;;;;;4912842;29;20461;-65
2023/08/26 14:19:47;;;;;;;3.70;2.17;;;;;;;;;;4914663;29;20837;-66
2023/08/26 14:22:14;;;;;;;2.93;1.50;;;;;;;;;;4914229;29;20828;-67
2023/08/26 14:24:43;;;;;;;5.13;2.40;;;;;;;;;;4913664;29;20455;-67
2023/08/26 14:27:11;;;;;;;2.83;1.50;;;;;;;;;;4913588;29;20555;-66
2023/08/26 14:29:38;;;;;;;2.83;1.70;;;;;;;;;;4914491;29;20528;-66
2023/08/26 14:32:07;;;;;;;5.10;1.80;;;;;;;;;;4912687;29;20489;-66